Time;durP1;ratioP1;P1;durP2;ratioP2;P2;SDS_P1;SDS_P2;PMS_P1;PMS_P2;Temp;Humidity;BMP_temperature;BMP_pressure;BME280_temperature;BME280_humidity;BME280_pressure;Samples;Min_cycle;Max_cycle;Signal;HPM_P1;HPM_P2
2021/04/14 00:01:56;;;;;;;1.93;0.40;;;9.50;94.30;;;;;;5071562;28;20297;-72
2021/04/14 00:04:23;;;;;;;0.40;0.40;;;9.50;94.00;;;;;;5073927;28;20183;-72
2021/04/14 00:06:48;;;;;;;1.40;0.50;;;9.50;93.70;;;;;;5072586;28;20190;-72
2021/04/14 00:09:14;;;;;;;0.67;0.50;;;9.50;93.50;;;;;;5073498;28;20202;-72
2021/04/14 00:11:40;;;;;;;0.43;0.43;;;9.40;93.70;;;;;;5069896;28;20183;-73
2021/04/14 00:14:09;;;;;;;0.67;0.67;;;9.50;94.40;;;;;;5075080;28;20239;-72
2021/04/14 00:16:35;;;;;;;0.57;0.57;;;9.50;95.00;;;;;;5071723;28;20226;-71
2021/04/14 00:19:02;;;;;;;3.80;0.60;;;9.50;95.10;;;;;;5072122;28;20265;-72
2021/04/14 00:21:28;;;;;;;1.43;0.53;;;9.40;94.50;;;;;;5066572;28;20211;-70
2021/04/14 00:23:55;;;;;;;0.73;0.30;;;9.40;94.00;;;;;;5048710;28;20747;-71
2021/04/14 00:26:20;;;;;;;0.60;0.53;;;9.40;94.30;;;;;;5070728;28;20203;-73
2021/04/14 00:28:47;;;;;;;2.53;0.60;;;9.40;94.40;;;;;;5071083;28;20237;-72
2021/04/14 00:31:14;;;;;;;1.87;0.43;;;9.40;94.70;;;;;;5070079;28;20194;-70
2021/04/14 00:33:42;;;;;;;0.30;0.30;;;9.30;95.00;;;;;;5071525;28;20195;-72
2021/04/14 00:36:10;;;;;;;0.50;0.40;;;9.30;95.20;;;;;;5073152;28;20202;-73
2021/04/14 00:38:36;;;;;;;0.40;0.40;;;9.30;95.40;;;;;;5070258;28;20272;-71
2021/04/14 00:41:10;;;;;;;1.23;0.63;;;9.30;95.80;;;;;;5073890;28;20710;-71
2021/04/14 00:43:37;;;;;;;2.37;0.57;;;9.20;95.80;;;;;;5069335;28;20608;-71
2021/04/14 00:46:04;;;;;;;0.20;0.20;;;9.20;96.20;;;;;;5077573;28;20179;-73
2021/04/14 00:48:30;;;;;;;0.30;0.30;;;9.10;95.50;;;;;;5074871;28;20210;-71
2021/04/14 00:50:56;;;;;;;0.37;0.30;;;9.10;95.80;;;;;;5071693;28;20319;-71
2021/04/14 00:53:22;;;;;;;0.20;0.20;;;9.00;95.80;;;;;;5071640;28;20183;-71
2021/04/14 00:55:49;;;;;;;0.20;0.20;;;9.00;95.90;;;;;;5072846;28;20183;-72
2021/04/14 00:58:15;;;;;;;0.87;0.30;;;9.00;96.30;;;;;;5072371;28;21036;-73
2021/04/14 01:00:44;;;;;;;1.37;0.17;;;8.90;96.50;;;;;;5076182;28;20272;-72
2021/04/14 01:03:20;;;;;;;0.30;0.30;;;8.90;96.60;;;;;;5072637;28;20183;-72
2021/04/14 01:05:47;;;;;;;2.83;0.20;;;8.90;96.50;;;;;;5069882;28;20576;-72
2021/04/14 01:08:13;;;;;;;0.30;0.30;;;8.70;96.90;;;;;;5069741;28;20183;-72
2021/04/14 01:10:39;;;;;;;1.23;0.57;;;8.70;97.10;;;;;;5070314;28;20639;-72
2021/04/14 01:13:05;;;;;;;0.63;0.63;;;8.70;97.20;;;;;;5070189;28;20175;-72
2021/04/14 01:15:35;;;;;;;0.30;0.30;;;8.70;97.40;;;;;;5076383;28;20257;-72
2021/04/14 01:18:02;;;;;;;0.30;0.20;;;8.70;97.80;;;;;;5073958;28;20239;-72
2021/04/14 01:20:28;;;;;;;0.40;0.40;;;8.60;98.10;;;;;;5075685;28;20214;-72
2021/04/14 01:22:54;;;;;;;0.30;0.30;;;8.60;97.50;;;;;;5069396;28;20193;-72
2021/04/14 01:25:25;;;;;;;0.63;0.20;;;8.60;96.90;;;;;;5069339;28;20321;-72
2021/04/14 01:27:51;;;;;;;0.20;0.20;;;8.50;97.20;;;;;;5066302;28;20175;-72
2021/04/14 01:30:19;;;;;;;0.63;0.20;;;8.50;96.80;;;;;;5050038;28;20179;-71
2021/04/14 01:32:45;;;;;;;1.67;0.20;;;8.40;96.90;;;;;;5068290;28;20175;-71
2021/04/14 01:35:12;;;;;;;0.30;0.30;;;8.40;96.70;;;;;;5074926;28;20552;-72
2021/04/14 01:37:39;;;;;;;0.20;0.20;;;8.40;96.40;;;;;;5072569;28;20562;-71
2021/04/14 01:40:06;;;;;;;0.67;0.20;;;8.30;96.40;;;;;;5072306;28;20181;-71
2021/04/14 01:42:31;;;;;;;0.10;0.10;;;8.20;96.40;;;;;;5069915;28;20285;-70
2021/04/14 01:44:57;;;;;;;0.10;0.10;;;8.20;96.10;;;;;;5070261;28;21074;-70
2021/04/14 01:47:23;;;;;;;0.10;0.10;;;8.00;96.20;;;;;;5070409;28;20179;-70
2021/04/14 01:49:48;;;;;;;0.20;0.20;;;7.70;95.90;;;;;;5067725;28;20183;-70
2021/04/14 01:52:14;;;;;;;0.00;0.00;;;7.60;95.70;;;;;;5073012;28;20343;-69
2021/04/14 01:54:41;;;;;;;0.00;0.00;;;7.40;95.50;;;;;;5079023;28;20183;-69
2021/04/14 01:57:07;;;;;;;0.10;0.10;;;7.20;96.00;;;;;;5067301;28;20175;-69
2021/04/14 01:59:33;;;;;;;0.00;0.00;;;7.20;96.50;;;;;;5072656;28;20190;-69
2021/04/14 02:01:58;;;;;;;0.00;0.00;;;7.10;96.30;;;;;;5069901;28;20207;-71
2021/04/14 02:04:24;;;;;;;0.07;0.07;;;7.10;96.50;;;;;;5076080;28;20181;-69
2021/04/14 02:06:49;;;;;;;1.90;0.03;;;7.00;96.40;;;;;;5072064;28;20740;-69
2021/04/14 02:09:15;;;;;;;0.00;0.00;;;7.00;97.00;;;;;;5067770;28;20914;-69
2021/04/14 02:11:41;;;;;;;0.07;0.07;;;7.00;97.10;;;;;;5070622;28;20680;-70
2021/04/14 02:14:09;;;;;;;0.07;0.07;;;7.10;97.20;;;;;;5070188;28;20186;-69
2021/04/14 02:16:35;;;;;;;0.00;0.00;;;7.10;97.20;;;;;;5072056;28;20180;-69
2021/04/14 02:19:02;;;;;;;0.00;0.00;;;7.10;97.20;;;;;;5076390;28;20178;-69
2021/04/14 02:21:28;;;;;;;0.10;0.10;;;7.10;97.20;;;;;;5074676;28;20202;-69
2021/04/14 02:23:53;;;;;;;0.40;0.40;;;7.10;97.20;;;;;;5075890;28;20185;-69
2021/04/14 02:26:22;;;;;;;0.07;0.07;;;7.10;97.10;;;;;;5076725;28;20876;-69
2021/04/14 02:28:48;;;;;;;0.03;0.03;;;7.10;96.90;;;;;;5078956;28;20240;-69
2021/04/14 02:31:17;;;;;;;0.00;0.00;;;7.10;96.60;;;;;;5074921;28;20190;-69
2021/04/14 02:33:43;;;;;;;0.00;0.00;;;7.10;96.90;;;;;;5074694;28;20187;-70
2021/04/14 02:36:09;;;;;;;0.00;0.00;;;7.10;97.00;;;;;;5080841;28;20186;-69
2021/04/14 02:38:35;;;;;;;0.00;0.00;;;7.10;96.70;;;;;;5071820;28;20682;-69
2021/04/14 02:41:04;;;;;;;0.07;0.07;;;7.10;96.90;;;;;;5051123;28;20715;-70
2021/04/14 02:43:30;;;;;;;0.67;0.10;;;7.10;96.90;;;;;;5073731;28;20197;-69
2021/04/14 02:45:56;;;;;;;0.10;0.10;;;7.10;96.60;;;;;;5078234;28;20171;-69
2021/04/14 02:48:22;;;;;;;0.20;0.20;;;7.10;96.50;;;;;;5077152;28;20183;-70
2021/04/14 02:50:48;;;;;;;0.03;0.03;;;7.10;96.50;;;;;;5075495;28;20178;-70
2021/04/14 02:53:14;;;;;;;0.10;0.10;;;7.10;96.60;;;;;;5079357;28;20312;-70
2021/04/14 02:55:40;;;;;;;0.10;0.10;;;7.10;96.40;;;;;;5073361;28;20174;-70
2021/04/14 02:58:06;;;;;;;0.10;0.10;;;7.10;96.50;;;;;;5067802;28;20175;-69
2021/04/14 03:00:32;;;;;;;0.10;0.10;;;7.10;96.50;;;;;;5073050;28;20214;-70
2021/04/14 03:02:58;;;;;;;0.00;0.00;;;7.10;96.50;;;;;;5069889;28;20177;-69
2021/04/14 03:05:29;;;;;;;0.07;0.07;;;7.10;96.40;;;;;;5069464;28;20237;-70
2021/04/14 03:07:56;;;;;;;0.00;0.00;;;7.10;96.00;;;;;;5076240;28;20167;-69
2021/04/14 03:10:22;;;;;;;0.00;0.00;;;7.10;95.90;;;;;;5076876;28;20273;-69
2021/04/14 03:12:49;;;;;;;0.10;0.10;;;7.10;95.80;;;;;;5073045;28;20323;-69
2021/04/14 03:15:18;;;;;;;0.10;0.10;;;7.20;95.70;;;;;;5056846;28;20273;-70
2021/04/14 03:17:44;;;;;;;0.07;0.07;;;7.20;95.40;;;;;;5074824;28;20171;-70
2021/04/14 03:20:10;;;;;;;0.53;0.53;;;7.20;95.70;;;;;;5076940;28;20185;-70
2021/04/14 03:22:36;;;;;;;0.57;0.20;;;7.20;95.70;;;;;;5075331;28;20175;-69
2021/04/14 03:25:04;;;;;;;0.00;0.00;;;7.20;95.70;;;;;;5075101;28;20572;-70
2021/04/14 03:27:29;;;;;;;0.63;0.13;;;7.30;95.80;;;;;;5072682;28;20325;-70
2021/04/14 03:29:55;;;;;;;0.93;0.17;;;7.30;96.00;;;;;;5071448;28;20179;-70
2021/04/14 03:32:21;;;;;;;0.20;0.20;;;7.30;95.70;;;;;;5074427;28;20193;-70
2021/04/14 03:34:46;;;;;;;0.60;0.60;;;7.30;95.60;;;;;;5075563;28;20190;-70
2021/04/14 03:37:12;;;;;;;0.40;0.40;;;7.30;95.50;;;;;;5075736;28;20178;-69
2021/04/14 03:39:38;;;;;;;0.20;0.20;;;7.30;95.60;;;;;;5076497;28;20660;-70
2021/04/14 03:42:04;;;;;;;0.10;0.10;;;7.30;95.70;;;;;;5073207;28;20214;-70
2021/04/14 03:44:34;;;;;;;2.30;0.37;;;7.30;95.70;;;;;;5075590;28;20170;-70
2021/04/14 03:47:01;;;;;;;0.83;0.20;;;7.40;95.70;;;;;;5072349;28;20629;-70
2021/04/14 03:49:27;;;;;;;0.27;0.27;;;7.40;95.70;;;;;;5074538;28;20178;-69
2021/04/14 03:51:53;;;;;;;2.43;0.30;;;7.40;95.80;;;;;;5071356;28;20202;-70
2021/04/14 03:54:19;;;;;;;0.20;0.20;;;7.50;95.70;;;;;;5073225;28;20570;-69
2021/04/14 03:56:45;;;;;;;0.30;0.30;;;7.50;95.70;;;;;;5071900;28;20183;-70
2021/04/14 03:59:10;;;;;;;0.20;0.20;;;7.50;95.50;;;;;;5068406;28;20181;-70
2021/04/14 04:01:36;;;;;;;0.30;0.30;;;7.50;95.50;;;;;;5070548;28;20273;-70
2021/04/14 04:04:02;;;;;;;0.23;0.20;;;7.50;95.40;;;;;;5074701;28;20216;-70
2021/04/14 04:06:28;;;;;;;0.20;0.20;;;7.50;95.40;;;;;;5070641;28;20270;-70
2021/04/14 04:08:54;;;;;;;2.20;0.33;;;7.50;95.40;;;;;;5070186;28;20265;-70
2021/04/14 04:11:22;;;;;;;0.70;0.70;;;7.50;95.40;;;;;;5071260;28;20225;-70
2021/04/14 04:13:49;;;;;;;5.80;0.70;;;7.50;95.50;;;;;;5072547;28;20240;-70
2021/04/14 04:16:15;;;;;;;0.63;0.63;;;7.50;95.70;;;;;;5069611;28;20179;-70
2021/04/14 04:18:41;;;;;;;0.50;0.50;;;7.50;95.70;;;;;;5070894;28;20262;-69
2021/04/14 04:21:08;;;;;;;1.60;0.83;;;7.50;96.10;;;;;;5067046;28;20305;-70
2021/04/14 04:23:34;;;;;;;0.50;0.50;;;7.60;96.20;;;;;;5069756;28;20630;-70
2021/04/14 04:26:00;;;;;;;1.07;0.57;;;7.60;96.00;;;;;;5067728;28;20269;-72
2021/04/14 04:28:26;;;;;;;1.60;0.80;;;7.60;96.00;;;;;;5071575;28;20258;-72
2021/04/14 04:30:52;;;;;;;2.53;0.70;;;7.70;95.80;;;;;;5071767;28;20186;-70
2021/04/14 04:33:20;;;;;;;2.20;1.20;;;7.70;95.80;;;;;;5069979;28;20249;-71
2021/04/14 04:35:46;;;;;;;1.70;0.53;;;7.70;96.10;;;;;;5071732;28;20175;-68
2021/04/14 04:38:11;;;;;;;1.20;1.10;;;7.80;96.30;;;;;;5076774;28;20183;-67
2021/04/14 04:40:37;;;;;;;0.97;0.80;;;7.80;96.60;;;;;;5067758;28;20214;-67
2021/04/14 04:43:04;;;;;;;1.70;0.90;;;7.90;96.80;;;;;;5077726;28;20179;-68
2021/04/14 04:45:31;;;;;;;1.13;1.00;;;7.90;96.90;;;;;;5070414;28;20191;-68
2021/04/14 04:47:58;;;;;;;0.63;0.63;;;8.00;96.70;;;;;;5070238;28;20182;-67
2021/04/14 04:50:28;;;;;;;1.43;0.87;;;8.00;96.60;;;;;;5073853;28;20273;-67
2021/04/14 04:52:59;;;;;;;0.70;0.70;;;8.00;96.50;;;;;;5076192;28;20666;-67
2021/04/14 04:55:26;;;;;;;0.73;0.73;;;8.00;96.60;;;;;;5069346;28;20197;-67
2021/04/14 04:57:52;;;;;;;0.53;0.53;;;8.00;96.40;;;;;;5072605;28;20193;-69
2021/04/14 05:00:19;;;;;;;2.20;1.00;;;8.00;96.20;;;;;;5069201;28;21028;-69
2021/04/14 05:02:45;;;;;;;0.97;0.83;;;8.00;96.40;;;;;;5073119;28;20167;-69
2021/04/14 05:05:20;;;;;;;1.23;1.23;;;7.90;96.30;;;;;;5065078;28;20197;-71
2021/04/14 05:07:46;;;;;;;1.63;0.73;;;7.80;95.90;;;;;;5069414;28;20182;-69
2021/04/14 05:10:13;;;;;;;0.70;0.70;;;7.70;95.70;;;;;;5074498;28;20244;-67
2021/04/14 05:12:39;;;;;;;0.80;0.80;;;7.40;95.70;;;;;;5067384;28;20187;-69
2021/04/14 05:15:07;;;;;;;1.00;1.00;;;7.20;96.20;;;;;;5065576;28;20182;-69
2021/04/14 05:17:32;;;;;;;0.60;0.60;;;7.10;96.60;;;;;;5067712;28;20630;-68
2021/04/14 05:19:58;;;;;;;0.90;0.90;;;7.10;97.20;;;;;;5068013;28;20179;-69
2021/04/14 05:22:25;;;;;;;1.10;1.10;;;7.10;97.30;;;;;;5071039;28;20210;-71
2021/04/14 05:24:51;;;;;;;0.90;0.90;;;7.00;97.20;;;;;;5069115;28;20198;-68
2021/04/14 05:27:31;;;;;;;1.53;1.27;;;6.90;97.20;;;;;;5068358;28;20194;-68
2021/04/14 05:29:56;;;;;;;0.93;0.90;;;6.80;96.90;;;;;;5054157;28;20182;-67
2021/04/14 05:32:24;;;;;;;0.70;0.70;;;6.70;97.10;;;;;;5069360;28;20186;-70
2021/04/14 05:34:50;;;;;;;0.87;0.87;;;6.60;97.10;;;;;;5073515;28;20201;-68
2021/04/14 05:37:16;;;;;;;1.00;1.00;;;6.50;97.10;;;;;;5066907;28;20175;-69
2021/04/14 05:39:41;;;;;;;0.77;0.77;;;6.30;96.90;;;;;;5071036;28;20715;-71
2021/04/14 05:42:07;;;;;;;0.93;0.90;;;6.30;97.10;;;;;;5070535;28;20207;-70
2021/04/14 05:44:33;;;;;;;1.63;0.70;;;6.20;97.20;;;;;;5075046;28;20273;-70
2021/04/14 05:46:58;;;;;;;0.70;0.70;;;6.10;97.40;;;;;;5071464;28;20856;-69
2021/04/14 05:49:24;;;;;;;1.73;0.80;;;6.10;97.70;;;;;;5068733;28;20803;-70
2021/04/14 05:51:50;;;;;;;0.67;0.67;;;6.00;97.70;;;;;;5066178;28;20179;-69
2021/04/14 05:54:15;;;;;;;0.60;0.60;;;5.90;97.40;;;;;;5075197;28;20545;-69
2021/04/14 05:56:41;;;;;;;1.13;0.90;;;6.00;97.70;;;;;;5053565;28;20255;-69
2021/04/14 05:59:07;;;;;;;0.60;0.60;;;6.10;97.50;;;;;;5075873;28;20193;-67
2021/04/14 06:01:34;;;;;;;0.60;0.60;;;6.10;97.00;;;;;;5073043;28;20713;-67
2021/04/14 06:04:01;;;;;;;0.60;0.60;;;6.20;96.90;;;;;;5077467;28;20195;-69
2021/04/14 06:06:27;;;;;;;0.60;0.60;;;6.20;96.50;;;;;;5068787;28;20174;-69
2021/04/14 06:08:52;;;;;;;0.60;0.60;;;6.20;96.10;;;;;;5073651;28;20714;-69
2021/04/14 06:11:18;;;;;;;0.50;0.50;;;6.30;95.90;;;;;;5071194;28;20179;-69
2021/04/14 06:13:45;;;;;;;0.40;0.40;;;6.30;95.10;;;;;;5052600;28;20180;-69
2021/04/14 06:16:11;;;;;;;0.40;0.40;;;6.20;94.40;;;;;;5054841;28;20655;-69
2021/04/14 06:18:37;;;;;;;0.60;0.60;;;6.10;94.20;;;;;;5073368;28;20196;-69
2021/04/14 06:21:04;;;;;;;0.37;0.37;;;6.10;94.50;;;;;;5072661;28;20254;-69
2021/04/14 06:23:30;;;;;;;1.13;0.70;;;6.10;94.70;;;;;;5075479;28;20584;-69
2021/04/14 06:26:20;;;;;;;0.50;0.40;;;6.00;94.30;;;;;;5074714;28;20203;-69
2021/04/14 06:28:44;;;;;;;1.17;0.70;;;6.00;94.90;;;;;;5073547;28;20186;-69
2021/04/14 06:31:14;;;;;;;0.63;0.63;;;6.00;94.50;;;;;;5073582;28;20178;-69
2021/04/14 06:33:43;;;;;;;0.50;0.50;;;6.10;95.00;;;;;;5074987;28;20170;-69
2021/04/14 06:36:09;;;;;;;0.40;0.40;;;6.10;93.90;;;;;;5077135;28;20619;-69
2021/04/14 06:38:40;;;;;;;0.30;0.30;;;6.00;93.70;;;;;;5075488;28;20647;-69
2021/04/14 06:44:04;;;;;;;0.33;0.33;;;5.90;92.50;;;;;;5075541;28;20608;-69
2021/04/14 06:46:34;;;;;;;0.80;0.80;;;5.90;92.40;;;;;;5072974;28;20230;-69
2021/04/14 06:49:09;;;;;;;0.50;0.50;;;6.00;92.20;;;;;;5073472;28;20179;-69
2021/04/14 06:51:35;;;;;;;0.40;0.40;;;6.10;92.20;;;;;;5074548;28;20290;-69
2021/04/14 06:54:22;;;;;;;0.40;0.40;;;6.10;91.80;;;;;;5073706;28;20261;-69
2021/04/14 06:56:58;;;;;;;1.70;0.50;;;6.10;91.80;;;;;;5070002;28;20182;-69
2021/04/14 06:59:26;;;;;;;0.50;0.50;;;6.10;91.70;;;;;;5073170;28;20178;-69
2021/04/14 07:02:14;;;;;;;0.30;0.30;;;6.20;91.40;;;;;;5074564;28;20651;-69
2021/04/14 07:05:11;;;;;;;0.40;0.40;;;6.10;91.30;;;;;;5072394;28;20620;-68
2021/04/14 07:07:39;;;;;;;0.43;0.43;;;6.10;90.80;;;;;;5022744;28;20303;-68
2021/04/14 07:10:17;;;;;;;0.40;0.40;;;6.00;90.70;;;;;;5024871;28;20212;-68
2021/04/14 07:12:43;;;;;;;0.23;0.23;;;6.00;91.20;;;;;;5023862;28;20202;-68
2021/04/14 07:15:19;;;;;;;0.33;0.33;;;6.00;91.40;;;;;;5023580;28;22232;-68
2021/04/14 07:18:09;;;;;;;0.37;0.37;;;6.00;90.80;;;;;;5023470;28;20187;-67
2021/04/14 07:20:43;;;;;;;0.50;0.43;;;6.00;91.00;;;;;;5022859;28;20223;-68
2021/04/14 07:23:39;;;;;;;0.30;0.30;;;6.00;90.80;;;;;;5007152;28;20227;-67
2021/04/14 07:26:05;;;;;;;0.30;0.30;;;6.00;90.70;;;;;;5023792;28;20328;-68
2021/04/14 07:28:53;;;;;;;0.53;0.50;;;6.00;90.10;;;;;;5023767;28;20858;-68
2021/04/14 07:31:26;;;;;;;0.30;0.30;;;5.90;89.60;;;;;;5003943;28;20240;-67
2021/04/14 07:34:17;;;;;;;2.13;0.40;;;5.80;89.30;;;;;;5004639;28;20692;-68
2021/04/14 07:37:20;;;;;;;0.30;0.30;;;5.80;89.20;;;;;;5018649;28;20741;-68
2021/04/14 07:39:51;;;;;;;0.30;0.30;;;5.80;89.20;;;;;;5019868;28;20185;-69
2021/04/14 07:42:42;;;;;;;1.33;0.50;;;5.90;89.00;;;;;;5003476;28;20224;-68
2021/04/14 07:45:14;;;;;;;0.40;0.40;;;6.00;89.00;;;;;;5020699;28;20906;-67
2021/04/14 07:47:53;;;;;;;0.50;0.50;;;5.90;88.00;;;;;;5031199;28;20200;-68
2021/04/14 07:50:29;;;;;;;0.37;0.37;;;6.00;87.70;;;;;;5036054;28;20196;-68
2021/04/14 07:52:55;;;;;;;0.60;0.60;;;6.00;87.20;;;;;;5025976;28;20187;-68
2021/04/14 07:55:31;;;;;;;1.80;0.30;;;5.90;87.10;;;;;;5030657;28;20188;-68
2021/04/14 07:58:06;;;;;;;0.30;0.30;;;6.00;87.20;;;;;;5030536;28;20259;-69
2021/04/14 08:00:39;;;;;;;0.40;0.40;;;6.10;87.90;;;;;;5034412;28;20203;-69
2021/04/14 08:03:10;;;;;;;0.50;0.50;;;6.20;87.30;;;;;;5025287;28;20200;-68
2021/04/14 08:05:36;;;;;;;0.50;0.50;;;6.10;86.90;;;;;;5033042;28;20180;-68
2021/04/14 08:08:12;;;;;;;0.30;0.30;;;6.10;87.20;;;;;;5045627;28;20273;-68
2021/04/14 08:10:37;;;;;;;0.77;0.43;;;6.10;87.20;;;;;;5076148;28;20190;-68
2021/04/14 08:13:05;;;;;;;0.47;0.47;;;6.10;87.30;;;;;;5069873;28;20551;-68
2021/04/14 08:15:44;;;;;;;0.40;0.40;;;6.10;87.20;;;;;;5071807;28;20175;-67
2021/04/14 08:18:16;;;;;;;0.40;0.40;;;6.30;87.70;;;;;;5076495;28;20178;-68
2021/04/14 08:20:47;;;;;;;0.30;0.30;;;6.30;86.80;;;;;;5079236;28;20203;-69
2021/04/14 08:23:23;;;;;;;0.83;0.33;;;6.30;86.70;;;;;;5071994;28;20190;-68
2021/04/14 08:25:55;;;;;;;0.40;0.40;;;6.30;86.40;;;;;;5075963;28;20331;-68
2021/04/14 08:28:30;;;;;;;0.70;0.70;;;6.30;86.60;;;;;;5070389;28;20995;-68
2021/04/14 08:31:08;;;;;;;0.40;0.40;;;6.40;86.60;;;;;;5073470;28;20194;-68
2021/04/14 08:33:34;;;;;;;0.40;0.40;;;6.40;86.30;;;;;;5071240;28;20195;-69
2021/04/14 08:36:39;;;;;;;1.23;0.60;;;6.50;86.50;;;;;;5066126;28;20183;-70
2021/04/14 08:39:24;;;;;;;0.30;0.30;;;6.50;86.50;;;;;;5009770;28;20177;-68
2021/04/14 08:41:53;;;;;;;0.43;0.43;;;6.60;86.00;;;;;;5006657;28;20296;-69
2021/04/14 08:44:32;;;;;;;0.40;0.40;;;6.80;86.50;;;;;;5012600;28;20220;-68
2021/04/14 08:47:26;;;;;;;2.23;0.40;;;6.90;84.60;;;;;;5014103;28;20196;-69
2021/04/14 08:50:15;;;;;;;0.50;0.50;;;7.10;84.20;;;;;;5012264;28;20202;-69
2021/04/14 08:52:50;;;;;;;0.30;0.30;;;7.20;84.20;;;;;;5006999;28;20668;-68
2021/04/14 08:55:16;;;;;;;0.30;0.30;;;7.30;83.80;;;;;;5009805;28;20188;-68
2021/04/14 08:57:42;;;;;;;0.43;0.43;;;7.40;83.50;;;;;;5011295;28;20180;-68
2021/04/14 09:00:10;;;;;;;3.30;0.50;;;7.50;83.50;;;;;;5009576;28;20200;-69
2021/04/14 09:02:37;;;;;;;0.33;0.33;;;7.70;83.40;;;;;;5012985;28;20307;-67
2021/04/14 09:05:07;;;;;;;0.60;0.60;;;7.80;83.20;;;;;;5008816;28;20192;-69
2021/04/14 09:07:38;;;;;;;0.40;0.40;;;7.90;82.80;;;;;;5005143;28;20263;-69
2021/04/14 09:10:09;;;;;;;0.40;0.40;;;8.10;81.70;;;;;;5005661;28;20553;-69
2021/04/14 09:12:56;;;;;;;1.57;0.30;;;8.20;80.50;;;;;;5025863;28;20241;-68
2021/04/14 09:15:22;;;;;;;0.43;0.43;;;8.20;80.60;;;;;;5071747;28;20896;-68
2021/04/14 09:18:04;;;;;;;0.30;0.30;;;8.30;80.10;;;;;;5071824;28;20182;-68
2021/04/14 09:20:35;;;;;;;0.40;0.40;;;8.40;80.10;;;;;;5075065;28;20178;-68
2021/04/14 09:23:08;;;;;;;0.33;0.33;;;8.50;79.20;;;;;;5065234;28;20190;-68
2021/04/14 09:25:46;;;;;;;0.40;0.40;;;8.60;79.50;;;;;;5067446;28;20213;-69
2021/04/14 09:28:25;;;;;;;0.50;0.50;;;8.80;79.90;;;;;;5045455;28;20277;-69
2021/04/14 09:30:54;;;;;;;0.40;0.40;;;9.00;79.20;;;;;;5074303;28;20179;-69
2021/04/14 09:33:35;;;;;;;0.40;0.40;;;9.20;79.30;;;;;;5072443;28;20179;-70
2021/04/14 09:38:51;;;;;;;2.00;0.70;;;9.30;76.60;;;;;;5075347;28;20258;-70
2021/04/14 09:41:26;;;;;;;4.60;0.50;;;9.20;76.80;;;;;;5076687;28;20641;-70
2021/04/14 09:43:54;;;;;;;0.60;0.60;;;9.10;77.20;;;;;;5075596;28;20185;-70
2021/04/14 09:46:32;;;;;;;0.87;0.87;;;9.00;77.40;;;;;;5075508;28;20197;-70
2021/04/14 09:49:10;;;;;;;2.10;0.60;;;8.90;78.00;;;;;;5073334;28;20693;-70
2021/04/14 09:51:39;;;;;;;0.47;0.47;;;8.90;78.10;;;;;;5069532;28;20655;-70
2021/04/14 09:54:26;;;;;;;0.40;0.40;;;8.90;78.60;;;;;;5071374;28;20190;-70
2021/04/14 09:57:00;;;;;;;0.50;0.50;;;9.00;77.90;;;;;;5073809;28;20175;-70
2021/04/14 09:59:39;;;;;;;0.40;0.40;;;9.10;77.40;;;;;;5021736;28;20190;-70
2021/04/14 10:02:40;;;;;;;0.93;0.73;;;9.00;77.20;;;;;;5070577;28;20201;-70
2021/04/14 10:05:06;;;;;;;2.17;0.60;;;8.90;77.60;;;;;;5039638;28;20200;-70
2021/04/14 10:07:35;;;;;;;3.90;1.03;;;8.90;78.00;;;;;;5039738;28;20200;-70
2021/04/14 10:10:22;;;;;;;0.57;0.57;;;9.00;78.10;;;;;;5041768;28;20195;-70
2021/04/14 10:12:49;;;;;;;1.23;0.90;;;9.00;77.80;;;;;;5039470;28;20323;-70
2021/04/14 10:15:16;;;;;;;2.97;0.77;;;9.20;78.40;;;;;;5041223;28;20203;-70
2021/04/14 10:17:42;;;;;;;3.97;0.60;;;9.40;78.00;;;;;;5041294;28;20183;-71
2021/04/14 10:20:15;;;;;;;0.63;0.63;;;9.80;77.20;;;;;;5040738;28;20202;-70
2021/04/14 10:22:47;;;;;;;0.60;0.60;;;10.50;76.30;;;;;;5039418;28;20215;-70
2021/04/14 10:25:21;;;;;;;0.57;0.57;;;11.40;75.30;;;;;;5040067;28;20211;-70
2021/04/14 10:27:51;;;;;;;0.60;0.60;;;12.40;71.40;;;;;;5040756;28;20215;-70
2021/04/14 10:30:22;;;;;;;0.70;0.70;;;13.00;71.30;;;;;;5039609;28;20756;-70
2021/04/14 10:32:50;;;;;;;0.60;0.60;;;13.30;68.90;;;;;;5040245;28;20256;-70
2021/04/14 10:35:23;;;;;;;0.82;0.82;;;13.50;68.60;;;;;;5048404;28;20202;-70
2021/04/14 10:37:51;;;;;;;0.70;0.70;;;13.50;67.30;;;;;;5071572;28;20175;-71
2021/04/14 10:40:29;;;;;;;2.05;0.82;;;13.30;67.70;;;;;;5071295;28;20194;-70
2021/04/14 10:42:56;;;;;;;2.45;0.70;;;13.10;68.10;;;;;;5070765;28;20187;-71
2021/04/14 10:45:24;;;;;;;0.65;0.65;;;12.80;67.80;;;;;;5070890;28;20179;-71
2021/04/14 10:47:54;;;;;;;0.50;0.50;;;12.40;68.70;;;;;;5054408;28;20175;-70
2021/04/14 10:50:25;;;;;;;0.63;0.63;;;11.80;68.90;;;;;;5068342;28;20679;-70
2021/04/14 10:52:58;;;;;;;0.52;0.52;;;11.30;70.50;;;;;;5067321;28;20187;-71
2021/04/14 10:55:28;;;;;;;0.70;0.70;;;10.80;71.40;;;;;;5074243;28;20186;-70
2021/04/14 10:58:00;;;;;;;0.70;0.70;;;10.40;72.40;;;;;;5073925;28;20202;-70
2021/04/14 11:00:32;;;;;;;1.40;0.70;;;10.20;73.00;;;;;;5072094;28;20190;-70
2021/04/14 11:03:07;;;;;;;0.87;0.87;;;10.00;73.60;;;;;;5054398;28;20210;-69
2021/04/14 11:05:37;;;;;;;0.90;0.90;;;10.10;74.10;;;;;;5067688;28;20188;-70
2021/04/14 11:08:03;;;;;;;0.40;0.40;;;10.90;74.80;;;;;;5071604;28;20179;-70
2021/04/14 11:10:33;;;;;;;0.70;0.70;;;12.10;72.20;;;;;;5071518;28;20243;-70
2021/04/14 11:13:00;;;;;;;0.87;0.70;;;13.30;68.10;;;;;;5072135;28;20180;-71
2021/04/14 11:15:32;;;;;;;0.70;0.70;;;13.90;66.20;;;;;;5071448;28;20178;-71
2021/04/14 11:18:10;;;;;;;2.10;0.90;;;14.30;65.10;;;;;;5072579;28;20206;-70
2021/04/14 11:20:49;;;;;;;0.75;0.60;;;14.20;66.00;;;;;;5070674;28;20220;-70
2021/04/14 11:23:39;;;;;;;1.65;1.00;;;14.20;64.70;;;;;;5073021;28;20212;-71
2021/04/14 11:26:12;;;;;;;0.77;0.77;;;14.00;65.40;;;;;;5076772;28;20258;-71
2021/04/14 11:28:53;;;;;;;1.00;1.00;;;13.70;64.70;;;;;;5072540;28;20178;-70
2021/04/14 11:31:36;;;;;;;0.80;0.80;;;13.10;65.30;;;;;;5074081;28;20253;-70
2021/04/14 11:34:17;;;;;;;0.60;0.60;;;12.70;66.60;;;;;;5074084;28;20699;-71
2021/04/14 11:36:56;;;;;;;0.82;0.82;;;12.00;67.30;;;;;;5051187;28;20631;-71
2021/04/14 11:39:22;;;;;;;0.68;0.68;;;11.40;68.80;;;;;;5072383;28;20186;-71
2021/04/14 11:42:03;;;;;;;0.80;0.80;;;11.10;69.50;;;;;;5079080;28;20297;-71
2021/04/14 11:44:45;;;;;;;3.80;1.00;;;11.00;70.90;;;;;;5075315;28;20194;-71
2021/04/14 11:47:28;;;;;;;1.05;0.88;;;10.90;70.20;;;;;;5073227;28;20241;-71
2021/04/14 11:49:55;;;;;;;1.10;1.10;;;10.90;70.60;;;;;;5067908;28;20261;-71
2021/04/14 11:52:21;;;;;;;1.17;1.17;;;11.30;70.80;;;;;;5076355;28;20186;-71
2021/04/14 11:54:48;;;;;;;0.80;0.80;;;12.00;70.20;;;;;;5073648;28;20284;-71
2021/04/14 11:57:31;;;;;;;1.20;1.20;;;12.90;68.50;;;;;;5071829;28;20258;-71
2021/04/14 12:00:26;;;;;;;1.00;1.00;;;13.90;64.70;;;;;;5077358;28;20186;-71
2021/04/14 12:02:55;;;;;;;1.20;1.20;;;14.50;63.80;;;;;;5076548;28;20277;-72
2021/04/14 12:05:21;;;;;;;1.10;1.10;;;15.20;62.80;;;;;;5073851;28;20313;-71
2021/04/14 12:07:46;;;;;;;1.00;1.00;;;15.80;60.90;;;;;;5075104;28;20305;-72
2021/04/14 12:10:13;;;;;;;0.90;0.90;;;16.30;60.50;;;;;;5077569;28;21645;-72
2021/04/14 12:12:39;;;;;;;0.90;0.90;;;16.60;59.30;;;;;;5078842;28;20653;-72
2021/04/14 12:17:51;;;;;;;0.85;0.85;;;17.60;57.90;;;;;;5072120;28;20185;-72
2021/04/14 12:20:17;;;;;;;0.95;0.95;;;17.70;57.30;;;;;;5073565;28;20179;-71
2021/04/14 12:22:42;;;;;;;1.25;1.00;;;17.30;57.10;;;;;;5077547;28;20237;-71
2021/04/14 12:25:09;;;;;;;1.17;1.17;;;16.80;58.50;;;;;;5078188;28;20204;-72
2021/04/14 12:27:35;;;;;;;1.85;1.75;;;16.40;58.40;;;;;;5073391;28;20187;-72
2021/04/14 12:30:00;;;;;;;1.02;1.02;;;15.80;60.00;;;;;;5074463;28;20183;-72
2021/04/14 12:32:26;;;;;;;1.25;1.25;;;15.70;59.70;;;;;;5076191;28;20661;-72
2021/04/14 12:34:52;;;;;;;1.35;1.35;;;15.60;60.20;;;;;;5068341;28;20194;-72
2021/04/14 12:37:18;;;;;;;1.63;1.63;;;16.00;59.60;;;;;;5058416;28;20175;-72
2021/04/14 12:39:43;;;;;;;1.23;1.23;;;16.40;59.70;;;;;;5075297;28;20593;-72
2021/04/14 12:42:09;;;;;;;3.15;1.40;;;17.00;58.00;;;;;;5074197;28;20822;-72
2021/04/14 12:44:36;;;;;;;1.20;1.20;;;16.60;57.90;;;;;;5074984;28;20666;-72
2021/04/14 12:47:02;;;;;;;1.40;1.30;;;16.30;58.30;;;;;;5078124;28;20183;-72
2021/04/14 12:49:28;;;;;;;1.15;1.13;;;15.80;59.30;;;;;;5073604;28;20181;-72
2021/04/14 12:51:56;;;;;;;1.33;1.33;;;15.50;60.10;;;;;;5074741;28;20957;-72
2021/04/14 12:54:32;;;;;;;1.17;1.17;;;15.40;59.80;;;;;;5075760;28;20220;-72
2021/04/14 12:57:16;;;;;;;1.05;1.05;;;15.30;60.80;;;;;;5070945;28;20183;-73
2021/04/14 12:59:44;;;;;;;1.75;1.15;;;15.00;60.40;;;;;;5073393;28;20186;-72
2021/04/14 13:02:18;;;;;;;1.30;1.30;;;15.10;61.20;;;;;;5077479;28;20263;-71
2021/04/14 13:05:03;;;;;;;1.20;1.20;;;15.10;60.80;;;;;;5074832;28;20602;-72
2021/04/14 13:07:35;;;;;;;1.20;1.20;;;15.20;60.20;;;;;;5075241;28;20280;-71
2021/04/14 13:10:08;;;;;;;1.00;1.00;;;15.20;60.40;;;;;;5070464;28;20187;-72
2021/04/14 13:12:35;;;;;;;1.10;1.10;;;15.30;60.20;;;;;;5071431;28;20190;-73
2021/04/14 13:15:19;;;;;;;1.35;1.35;;;15.80;59.60;;;;;;5073712;28;20323;-73
2021/04/14 13:17:52;;;;;;;1.55;1.52;;;16.30;59.00;;;;;;5072793;28;20224;-72
2021/04/14 13:20:19;;;;;;;1.25;1.25;;;16.50;57.80;;;;;;5070037;28;20197;-72